Time;durP1;ratioP1;P1;durP2;ratioP2;P2;SDS_P1;SDS_P2;PMS_P1;PMS_P2;Temp;Humidity;BMP_temperature;BMP_pressure;BME280_temperature;BME280_humidity;BME280_pressure;Samples;Min_cycle;Max_cycle;Signal;HPM_P1;HPM_P2
2023/08/26 00:01:50;;;;;;;20.83;12.97;;;20.60;99.90;;;;;;5088475;28;20272;-70
2023/08/26 00:04:15;;;;;;;19.33;13.00;;;20.40;99.90;;;;;;5089726;28;20207;-69
2023/08/26 00:06:41;;;;;;;18.40;15.07;;;20.30;99.90;;;;;;5070627;28;20265;-69
2023/08/26 00:09:07;;;;;;;20.40;13.43;;;20.20;99.90;;;;;;5088731;28;20186;-69
2023/08/26 00:11:32;;;;;;;20.00;13.27;;;20.20;99.90;;;;;;5088747;28;20213;-69
2023/08/26 00:13:58;;;;;;;15.20;11.70;;;20.20;99.90;;;;;;5070439;28;20267;-69
2023/08/26 00:16:24;;;;;;;16.70;12.50;;;20.20;99.90;;;;;;5088714;28;20209;-69
2023/08/26 00:18:49;;;;;;;14.10;11.07;;;20.20;99.90;;;;;;5088526;28;20218;-69
2023/08/26 00:21:20;;;;;;;17.77;10.60;;;20.30;99.90;;;;;;5088752;28;20428;-69
2023/08/26 00:23:46;;;;;;;16.17;10.83;;;20.40;99.90;;;;;;5088743;28;20257;-69
2023/08/26 00:26:12;;;;;;;12.90;10.03;;;20.50;99.90;;;;;;5088529;28;20421;-69
2023/08/26 00:28:37;;;;;;;16.50;11.70;;;20.50;99.90;;;;;;5089031;28;20193;-69
2023/08/26 00:31:03;;;;;;;18.40;11.70;;;20.50;99.90;;;;;;5088854;28;20190;-69
2023/08/26 00:33:29;;;;;;;20.40;12.10;;;20.50;99.90;;;;;;5089011;28;20711;-69
2023/08/26 00:35:54;;;;;;;15.10;9.40;;;20.50;99.90;;;;;;5087312;28;20206;-69
2023/08/26 00:38:20;;;;;;;14.83;9.50;;;20.40;99.90;;;;;;5088850;28;20689;-69
2023/08/26 00:40:46;;;;;;;12.33;9.17;;;20.30;99.90;;;;;;5088975;28;20571;-69
2023/08/26 00:43:11;;;;;;;10.03;8.63;;;20.30;99.90;;;;;;5088880;28;20182;-69
2023/08/26 00:45:45;;;;;;;11.37;9.03;;;20.30;99.90;;;;;;5088926;28;20218;-68
2023/08/26 00:48:12;;;;;;;13.80;9.50;;;20.10;99.90;;;;;;5089003;28;20212;-69
2023/08/26 00:50:43;;;;;;;12.80;9.30;;;20.10;99.90;;;;;;5089204;28;20466;-69
2023/08/26 00:53:11;;;;;;;8.97;7.90;;;20.00;99.90;;;;;;5089199;28;20424;-69
2023/08/26 00:55:39;;;;;;;11.17;8.73;;;19.90;99.90;;;;;;5089144;28;20456;-69
2023/08/26 00:58:06;;;;;;;14.50;9.00;;;19.90;99.90;;;;;;5089160;28;20571;-68
2023/08/26 01:00:35;;;;;;;15.00;9.50;;;19.90;99.90;;;;;;5087638;28;20417;-69
2023/08/26 01:03:01;;;;;;;16.00;9.73;;;19.90;99.90;;;;;;5089028;28;20463;-69
2023/08/26 01:05:28;;;;;;;17.50;8.13;;;19.90;99.90;;;;;;5089148;28;20424;-69
2023/08/26 01:07:54;;;;;;;12.83;9.93;;;19.90;99.90;;;;;;5089143;28;20867;-69
2023/08/26 01:10:24;;;;;;;13.30;8.50;;;19.90;99.90;;;;;;5089056;28;20448;-69
2023/08/26 01:13:04;;;;;;;22.40;9.33;;;19.90;99.90;;;;;;5089046;28;20790;-70
2023/08/26 01:15:31;;;;;;;15.00;10.20;;;19.90;99.90;;;;;;5087498;28;20448;-69
2023/08/26 01:18:00;;;;;;;13.63;9.47;;;19.90;99.90;;;;;;5089001;28;20468;-68
2023/08/26 01:20:27;;;;;;;10.00;8.50;;;19.90;99.90;;;;;;5092741;28;20444;-69
2023/08/26 01:22:54;;;;;;;9.67;7.50;;;19.80;99.90;;;;;;5091484;28;20916;-69
2023/08/26 01:25:20;;;;;;;13.43;8.57;;;19.80;99.90;;;;;;5092751;28;20437;-69
2023/08/26 01:27:46;;;;;;;11.53;9.40;;;19.80;99.90;;;;;;5092794;28;20427;-69
2023/08/26 01:30:12;;;;;;;9.33;7.90;;;19.80;99.90;;;;;;5092765;28;20876;-69
2023/08/26 01:33:00;;;;;;;10.90;8.77;;;19.80;99.90;;;;;;5092741;28;20187;-68
2023/08/26 01:35:36;;;;;;;16.90;7.33;;;19.80;99.90;;;;;;5092870;28;20933;-68
2023/08/26 01:38:02;;;;;;;12.63;9.57;;;19.80;99.90;;;;;;5092597;28;20454;-69
2023/08/26 01:40:29;;;;;;;14.53;9.00;;;19.80;99.90;;;;;;5092722;28;20503;-70
2023/08/26 01:42:54;;;;;;;16.60;9.10;;;19.90;99.90;;;;;;5093020;28;20434;-69
2023/08/26 01:45:20;;;;;;;12.00;8.90;;;19.80;99.90;;;;;;5092410;28;20995;-70
2023/08/26 01:47:46;;;;;;;14.73;8.70;;;19.80;99.90;;;;;;5092106;28;20421;-69
2023/08/26 01:50:11;;;;;;;11.90;8.23;;;19.80;99.90;;;;;;5092027;28;20239;-69
2023/08/26 01:52:37;;;;;;;10.13;8.57;;;19.90;99.90;;;;;;5090651;28;20546;-68
2023/08/26 01:55:03;;;;;;;11.97;8.13;;;19.90;99.90;;;;;;5091843;28;20222;-68
2023/08/26 01:57:29;;;;;;;14.13;9.77;;;19.80;99.90;;;;;;5091922;28;20293;-68
2023/08/26 01:59:54;;;;;;;12.43;8.53;;;19.80;99.90;;;;;;5091938;28;21144;-69
2023/08/26 02:02:20;;;;;;;14.70;8.83;;;19.70;99.90;;;;;;5073823;28;20178;-67
2023/08/26 02:04:45;;;;;;;12.33;8.27;;;19.60;99.90;;;;;;5092129;28;20202;-68
2023/08/26 02:07:12;;;;;;;10.47;8.17;;;19.60;99.90;;;;;;5092036;28;20201;-68
2023/08/26 02:09:37;;;;;;;9.00;7.77;;;19.60;99.90;;;;;;5092098;28;20255;-69
2023/08/26 02:12:03;;;;;;;12.77;9.43;;;19.50;99.90;;;;;;5092068;28;20473;-68
2023/08/26 02:14:29;;;;;;;16.07;8.93;;;19.50;99.90;;;;;;5091971;28;20221;-68
2023/08/26 02:16:54;;;;;;;11.53;8.90;;;19.50;99.90;;;;;;5092217;28;20940;-69
2023/08/26 02:19:20;;;;;;;15.47;8.17;;;19.50;99.90;;;;;;5090836;28;20339;-69
2023/08/26 02:21:46;;;;;;;14.23;7.70;;;19.60;99.90;;;;;;5091786;28;20589;-69
2023/08/26 02:24:11;;;;;;;9.50;7.10;;;19.60;99.90;;;;;;5091722;28;20679;-69
2023/08/26 02:26:37;;;;;;;12.90;7.27;;;19.50;99.90;;;;;;5090268;28;20185;-69
2023/08/26 02:29:03;;;;;;;10.60;7.70;;;19.40;99.90;;;;;;5073113;28;20301;-69
2023/08/26 02:31:28;;;;;;;14.13;8.07;;;19.40;99.90;;;;;;5090072;28;20419;-69
2023/08/26 02:33:54;;;;;;;11.43;7.90;;;19.50;99.90;;;;;;5089852;28;20202;-69
2023/08/26 02:36:20;;;;;;;10.97;7.87;;;19.40;99.90;;;;;;5091199;28;20668;-69
2023/08/26 02:38:45;;;;;;;12.03;6.87;;;19.50;99.90;;;;;;5091150;28;20211;-69
2023/08/26 02:41:11;;;;;;;7.33;6.30;;;19.50;99.90;;;;;;5089909;28;20178;-70
2023/08/26 02:43:37;;;;;;;14.20;6.10;;;19.50;99.90;;;;;;5091332;28;20595;-69
2023/08/26 02:46:03;;;;;;;7.27;5.10;;;19.50;99.90;;;;;;5091112;28;20502;-69
2023/08/26 02:48:29;;;;;;;8.17;5.53;;;19.40;99.90;;;;;;5089819;28;20676;-69
2023/08/26 02:50:59;;;;;;;7.70;5.67;;;19.40;99.90;;;;;;5091300;28;20183;-69
2023/08/26 02:53:26;;;;;;;8.37;6.47;;;19.30;99.90;;;;;;5089870;28;20416;-69
2023/08/26 02:55:52;;;;;;;7.50;5.97;;;19.30;99.90;;;;;;5091171;28;20468;-69
2023/08/26 02:58:19;;;;;;;6.40;5.33;;;19.30;99.90;;;;;;5089985;28;20472;-69
2023/08/26 03:00:46;;;;;;;8.93;5.07;;;19.30;99.90;;;;;;5091341;28;20773;-68
2023/08/26 03:03:11;;;;;;;15.53;6.20;;;19.30;99.90;;;;;;5091218;28;20783;-69
2023/08/26 03:05:37;;;;;;;14.00;6.30;;;19.40;99.90;;;;;;5089701;28;20452;-68
2023/08/26 03:08:03;;;;;;;11.07;5.63;;;19.30;99.90;;;;;;5090908;28;20178;-68
2023/08/26 03:10:30;;;;;;;5.50;4.90;;;19.30;99.90;;;;;;5090185;28;20529;-69
2023/08/26 03:12:55;;;;;;;8.60;5.53;;;19.30;99.90;;;;;;5090414;28;20180;-69
2023/08/26 03:15:21;;;;;;;13.63;5.67;;;19.30;99.90;;;;;;5089992;28;20486;-68
2023/08/26 03:17:47;;;;;;;12.87;5.70;;;19.30;99.90;;;;;;5088767;28;20202;-69
2023/08/26 03:20:13;;;;;;;13.33;4.90;;;19.30;99.90;;;;;;5090150;28;20179;-69
2023/08/26 03:22:39;;;;;;;9.60;5.10;;;19.30;99.90;;;;;;5090080;28;20435;-69
2023/08/26 03:25:05;;;;;;;7.63;5.50;;;19.20;99.90;;;;;;5089848;28;20543;-68
2023/08/26 03:27:31;;;;;;;6.63;4.60;;;19.20;99.90;;;;;;5089686;28;20464;-69
2023/08/26 03:29:56;;;;;;;6.40;4.60;;;19.20;99.90;;;;;;5088432;28;20428;-68
2023/08/26 03:32:22;;;;;;;10.53;4.30;;;19.20;99.90;;;;;;5089914;28;20201;-69
2023/08/26 03:34:48;;;;;;;15.07;5.00;;;19.10;99.90;;;;;;5089736;28;20198;-69
2023/08/26 03:37:13;;;;;;;10.60;4.97;;;19.20;99.90;;;;;;5088514;28;20213;-69
2023/08/26 03:39:39;;;;;;;8.70;4.90;;;19.20;99.90;;;;;;5089545;28;20213;-69
2023/08/26 03:42:05;;;;;;;4.57;4.17;;;19.20;99.90;;;;;;5089436;28;20185;-69
2023/08/26 03:44:31;;;;;;;8.50;4.70;;;19.20;99.90;;;;;;5089437;28;20544;-69
2023/08/26 03:46:56;;;;;;;13.23;5.07;;;19.20;99.90;;;;;;5089492;28;20208;-69
2023/08/26 03:49:22;;;;;;;6.20;4.57;;;19.10;99.90;;;;;;5089512;28;20547;-69
2023/08/26 03:51:48;;;;;;;7.30;4.63;;;19.20;99.90;;;;;;5088021;28;20192;-69
2023/08/26 03:54:13;;;;;;;4.73;4.10;;;19.10;99.90;;;;;;5089154;28;20221;-69
2023/08/26 03:56:39;;;;;;;5.10;4.30;;;19.10;99.90;;;;;;5089277;28;20419;-69
2023/08/26 03:59:06;;;;;;;8.23;5.00;;;19.10;99.90;;;;;;5089155;28;20278;-69
2023/08/26 04:01:32;;;;;;;6.57;4.60;;;19.00;99.90;;;;;;5089007;28;20413;-68
2023/08/26 04:03:58;;;;;;;11.90;5.10;;;19.00;99.90;;;;;;5088966;28;20802;-69
2023/08/26 04:06:23;;;;;;;6.70;4.90;;;19.00;99.90;;;;;;5089126;28;20249;-68
2023/08/26 04:08:49;;;;;;;7.53;5.30;;;19.00;99.90;;;;;;5087661;28;21068;-69
2023/08/26 04:11:17;;;;;;;10.03;4.13;;;19.10;99.90;;;;;;5089007;28;20194;-69
2023/08/26 04:13:45;;;;;;;8.10;4.60;;;19.00;99.90;;;;;;5087431;28;20190;-70
2023/08/26 04:16:11;;;;;;;5.93;3.93;;;19.10;99.90;;;;;;5089142;28;20458;-69
2023/08/26 04:18:36;;;;;;;7.00;4.03;;;19.20;99.90;;;;;;5088830;28;20466;-69
2023/08/26 04:21:03;;;;;;;6.83;4.20;;;19.20;99.90;;;;;;5088995;28;20409;-69
2023/08/26 04:23:29;;;;;;;6.33;3.90;;;19.20;99.90;;;;;;5087201;28;20190;-68
2023/08/26 04:26:02;;;;;;;7.40;4.33;;;19.20;99.90;;;;;;5088791;28;20868;-68
2023/08/26 04:28:29;;;;;;;17.53;4.63;;;19.20;99.90;;;;;;5088719;28;20871;-69
2023/08/26 04:30:55;;;;;;;5.60;4.70;;;19.20;99.90;;;;;;5088837;28;20441;-68
2023/08/26 04:33:20;;;;;;;5.13;3.80;;;19.30;99.90;;;;;;5088653;28;20919;-68
2023/08/26 04:35:46;;;;;;;9.73;4.20;;;19.30;99.90;;;;;;5088556;28;20440;-69
2023/08/26 04:38:13;;;;;;;6.13;4.30;;;19.30;99.90;;;;;;5086813;28;20683;-69
2023/08/26 04:40:38;;;;;;;7.30;4.63;;;19.30;99.90;;;;;;5088657;28;20651;-68
2023/08/26 04:43:04;;;;;;;13.03;4.67;;;19.30;99.90;;;;;;5088579;28;20420;-69
2023/08/26 04:45:30;;;;;;;7.90;5.17;;;19.30;99.90;;;;;;5088316;28;20197;-69
2023/08/26 04:47:55;;;;;;;9.17;5.33;;;19.40;99.90;;;;;;5087007;28;20288;-68
2023/08/26 04:50:21;;;;;;;9.80;4.97;;;19.30;99.90;;;;;;5088760;28;20214;-69
2023/08/26 04:52:47;;;;;;;11.00;5.30;;;19.30;99.90;;;;;;5088520;28;20239;-69
2023/08/26 04:55:13;;;;;;;7.27;5.20;;;19.40;99.90;;;;;;5090630;28;20558;-69
2023/08/26 04:57:39;;;;;;;5.40;4.50;;;19.30;99.90;;;;;;5092213;28;20507;-69
2023/08/26 05:00:11;;;;;;;8.13;4.80;;;19.30;99.90;;;;;;5091064;28;20196;-69
2023/08/26 05:02:38;;;;;;;5.80;3.70;;;19.30;99.90;;;;;;5092540;28;20177;-69
2023/08/26 05:05:04;;;;;;;12.07;5.87;;;19.40;99.90;;;;;;5092462;28;20463;-69
2023/08/26 05:07:31;;;;;;;12.90;5.40;;;19.30;99.90;;;;;;5090761;28;20438;-69
2023/08/26 05:09:57;;;;;;;6.67;5.27;;;19.30;99.90;;;;;;5090755;28;20420;-69
2023/08/26 05:12:22;;;;;;;8.27;5.03;;;19.30;99.90;;;;;;5092220;28;20422;-69
2023/08/26 05:14:48;;;;;;;10.63;5.10;;;19.30;99.90;;;;;;5090685;28;20198;-69
2023/08/26 05:17:13;;;;;;;11.03;5.00;;;19.30;99.90;;;;;;5092366;28;20227;-69
2023/08/26 05:19:39;;;;;;;8.93;5.13;;;19.20;99.90;;;;;;5092148;28;20221;-69
2023/08/26 05:22:05;;;;;;;6.03;4.10;;;19.20;99.90;;;;;;5092254;28;20202;-69
2023/08/26 05:24:30;;;;;;;8.80;4.60;;;19.20;99.90;;;;;;5091993;28;20553;-69
2023/08/26 05:26:57;;;;;;;6.40;5.00;;;19.20;99.90;;;;;;5092189;28;20653;-69
2023/08/26 05:29:23;;;;;;;20.80;6.00;;;19.20;99.90;;;;;;5091864;28;20190;-69
2023/08/26 05:31:48;;;;;;;9.90;5.60;;;19.20;99.90;;;;;;5092140;28;20443;-70
2023/08/26 05:34:14;;;;;;;18.60;5.90;;;19.30;99.90;;;;;;5092144;28;20213;-69
2023/08/26 05:36:40;;;;;;;11.53;5.23;;;19.30;99.90;;;;;;5090741;28;20185;-69
2023/08/26 05:39:05;;;;;;;10.17;5.10;;;19.30;99.90;;;;;;5091942;28;21089;-69
2023/08/26 05:41:31;;;;;;;9.90;6.03;;;19.30;99.90;;;;;;5091784;28;20263;-69
2023/08/26 05:43:56;;;;;;;14.30;6.07;;;19.30;99.90;;;;;;5090296;28;20206;-69
2023/08/26 05:46:22;;;;;;;11.13;5.47;;;19.40;99.90;;;;;;5090373;28;20189;-70
2023/08/26 05:48:48;;;;;;;11.50;6.13;;;19.40;99.90;;;;;;5091943;28;20186;-70
2023/08/26 05:51:13;;;;;;;11.97;6.70;;;19.40;99.90;;;;;;5091739;28;20304;-69
2023/08/26 05:53:39;;;;;;;7.77;5.20;;;19.50;99.90;;;;;;5090139;28;20185;-70
2023/08/26 05:56:05;;;;;;;6.80;5.63;;;19.50;99.90;;;;;;5090556;28;20752;-69
2023/08/26 05:58:30;;;;;;;6.37;5.23;;;19.50;99.90;;;;;;5091529;28;20206;-69
2023/08/26 06:00:56;;;;;;;8.27;5.53;;;19.50;99.90;;;;;;5091563;28;20512;-70
2023/08/26 06:03:22;;;;;;;12.23;5.20;;;19.70;99.90;;;;;;5091665;28;20193;-69
2023/08/26 06:05:47;;;;;;;8.90;5.23;;;19.50;99.90;;;;;;5091442;28;20496;-70
2023/08/26 06:08:13;;;;;;;14.00;5.97;;;19.40;99.90;;;;;;5091820;28;20190;-69
2023/08/26 06:10:38;;;;;;;9.13;4.87;;;19.40;99.90;;;;;;5091774;28;20223;-69
2023/08/26 06:13:04;;;;;;;12.37;5.17;;;19.40;99.90;;;;;;5090400;28;20277;-69
2023/08/26 06:15:30;;;;;;;9.67;5.27;;;19.50;99.90;;;;;;5090591;28;20994;-69
2023/08/26 06:17:56;;;;;;;11.37;5.40;;;19.40;99.90;;;;;;5091996;28;20474;-69
2023/08/26 06:20:22;;;;;;;14.63;5.20;;;19.40;99.90;;;;;;5091949;28;20684;-69
2023/08/26 06:22:48;;;;;;;9.93;5.40;;;19.40;99.90;;;;;;5091900;28;20178;-69
2023/08/26 06:25:14;;;;;;;10.93;5.07;;;19.50;99.90;;;;;;5091814;28;20432;-69
2023/08/26 06:27:41;;;;;;;12.90;4.70;;;19.40;99.90;;;;;;5090511;28;20186;-68
2023/08/26 06:30:08;;;;;;;13.30;5.83;;;19.30;99.90;;;;;;5091829;28;20415;-71
2023/08/26 06:32:34;;;;;;;8.57;5.50;;;19.40;99.90;;;;;;5090145;28;20435;-70
2023/08/26 06:35:00;;;;;;;12.63;6.53;;;19.60;99.90;;;;;;5091520;28;20428;-70
2023/08/26 06:37:25;;;;;;;7.73;5.30;;;19.60;99.90;;;;;;5091095;28;20423;-70
2023/08/26 06:39:51;;;;;;;14.33;5.73;;;19.70;99.90;;;;;;5091070;28;20213;-71
2023/08/26 06:42:17;;;;;;;6.10;5.30;;;19.70;99.90;;;;;;5091104;28;20185;-71
2023/08/26 06:44:42;;;;;;;15.00;5.87;;;19.70;99.90;;;;;;5072550;28;20198;-71
2023/08/26 06:47:09;;;;;;;10.47;5.30;;;19.70;99.90;;;;;;5090674;28;20676;-70
2023/08/26 06:49:35;;;;;;;7.77;5.20;;;19.80;99.90;;;;;;5089519;28;20198;-70
2023/08/26 06:52:01;;;;;;;12.30;5.67;;;19.80;99.90;;;;;;5089087;28;20492;-71
2023/08/26 06:54:27;;;;;;;5.23;4.57;;;19.90;99.90;;;;;;5089066;28;20464;-71
2023/08/26 06:56:53;;;;;;;13.27;5.20;;;19.90;99.90;;;;;;5090565;28;20428;-71
2023/08/26 06:59:19;;;;;;;7.87;5.50;;;19.90;99.90;;;;;;5090396;28;20464;-71
2023/08/26 07:01:44;;;;;;;7.47;5.10;;;19.90;99.90;;;;;;5089013;28;20175;-71
2023/08/26 07:04:11;;;;;;;10.10;5.70;;;20.00;99.90;;;;;;5090348;28;20266;-71
2023/08/26 07:06:38;;;;;;;7.07;4.73;;;20.10;99.90;;;;;;5072116;28;20225;-71
2023/08/26 07:09:04;;;;;;;9.73;5.17;;;20.00;99.90;;;;;;5090474;28;20408;-71
2023/08/26 07:11:31;;;;;;;17.13;4.80;;;20.10;99.90;;;;;;5072276;28;20448;-72
2023/08/26 07:13:57;;;;;;;7.43;4.53;;;20.20;99.90;;;;;;5090448;28;20967;-71
2023/08/26 07:16:25;;;;;;;11.93;5.10;;;20.30;99.90;;;;;;5088752;28;20493;-70
2023/08/26 07:18:50;;;;;;;10.00;5.13;;;20.40;99.90;;;;;;5090768;28;20892;-70
2023/08/26 07:21:16;;;;;;;12.93;5.33;;;20.50;99.90;;;;;;5090804;28;20440;-71
2023/08/26 07:23:42;;;;;;;10.47;4.40;;;20.50;99.90;;;;;;5090516;28;20183;-70
2023/08/26 07:26:07;;;;;;;10.53;4.70;;;20.40;99.90;;;;;;5090656;28;20175;-71
2023/08/26 07:28:33;;;;;;;6.27;5.40;;;20.30;99.90;;;;;;5090621;28;20174;-71
2023/08/26 07:31:06;;;;;;;14.20;4.93;;;20.30;99.90;;;;;;5090456;28;20791;-71
2023/08/26 07:33:32;;;;;;;4.83;4.33;;;20.30;99.90;;;;;;5089090;28;20205;-71
2023/08/26 07:36:11;;;;;;;10.63;4.70;;;20.30;99.90;;;;;;5088552;28;20447;-71
2023/08/26 07:38:38;;;;;;;7.50;5.47;;;20.40;99.90;;;;;;5089043;28;20463;-71
2023/08/26 07:41:03;;;;;;;9.63;5.43;;;20.50;99.90;;;;;;5087159;28;20499;-70
2023/08/26 07:43:30;;;;;;;5.33;4.37;;;20.50;99.90;;;;;;5088580;28;20523;-69
2023/08/26 07:45:56;;;;;;;7.73;4.00;;;20.50;99.90;;;;;;5088613;28;20248;-70
2023/08/26 07:48:22;;;;;;;6.63;4.40;;;20.50;99.90;;;;;;5087228;28;20425;-70
2023/08/26 07:50:48;;;;;;;5.87;4.10;;;20.60;99.90;;;;;;5088612;28;20489;-70
2023/08/26 07:53:13;;;;;;;6.50;4.33;;;20.60;99.90;;;;;;5089327;28;20924;-70
2023/08/26 07:55:39;;;;;;;10.40;4.80;;;20.70;99.90;;;;;;5089864;28;20217;-69
2023/08/26 07:58:05;;;;;;;8.00;5.40;;;20.60;99.90;;;;;;5088889;28;20617;-69
2023/08/26 08:00:31;;;;;;;6.93;3.80;;;20.80;99.90;;;;;;5088499;28;20244;-70
2023/08/26 08:02:57;;;;;;;10.23;4.53;;;20.90;99.90;;;;;;5088630;28;20544;-71
2023/08/26 08:05:23;;;;;;;7.30;4.47;;;20.90;99.90;;;;;;5087626;28;20440;-71
2023/08/26 08:07:49;;;;;;;11.20;4.40;;;21.00;99.90;;;;;;5088620;28;20292;-70
2023/08/26 08:10:14;;;;;;;7.43;4.43;;;21.00;99.90;;;;;;5086865;28;20507;-70
2023/08/26 08:12:40;;;;;;;11.37;4.17;;;21.00;99.90;;;;;;5088351;28;20202;-69
2023/08/26 08:15:07;;;;;;;10.20;4.93;;;21.00;99.90;;;;;;5088465;28;20577;-70
2023/08/26 08:17:32;;;;;;;6.93;4.20;;;21.20;99.90;;;;;;5088275;28;20992;-70
2023/08/26 08:19:58;;;;;;;6.80;4.17;;;21.40;99.90;;;;;;5088186;28;20548;-70
2023/08/26 08:22:41;;;;;;;10.10;4.07;;;21.50;99.90;;;;;;5088283;28;20183;-70
2023/08/26 08:25:07;;;;;;;8.60;3.40;;;21.60;99.90;;;;;;5088152;28;20222;-70
2023/08/26 08:27:33;;;;;;;6.90;3.77;;;21.50;99.90;;;;;;5086249;28;20432;-70
2023/08/26 08:29:59;;;;;;;9.13;4.40;;;21.50;99.90;;;;;;5086068;28;20452;-70
2023/08/26 08:32:26;;;;;;;11.70;4.27;;;21.50;99.90;;;;;;5088032;28;20186;-69
2023/08/26 08:34:52;;;;;;;6.83;3.70;;;21.40;99.90;;;;;;5086207;28;20824;-69
2023/08/26 08:37:18;;;;;;;6.70;3.93;;;21.50;99.90;;;;;;5087946;28;20424;-69
2023/08/26 08:39:44;;;;;;;9.10;4.80;;;21.50;99.90;;;;;;5087639;28;20457;-69
2023/08/26 08:42:12;;;;;;;6.80;3.40;;;21.50;99.90;;;;;;5087769;28;20795;-70
2023/08/26 08:44:41;;;;;;;12.13;4.70;;;21.40;99.90;;;;;;5087725;28;20202;-70
2023/08/26 08:47:08;;;;;;;13.47;4.50;;;21.40;99.90;;;;;;5087520;28;20409;-69
2023/08/26 08:49:34;;;;;;;7.20;4.60;;;21.40;99.90;;;;;;5087403;28;20470;-69
2023/08/26 08:52:04;;;;;;;9.10;4.83;;;21.30;99.90;;;;;;5087178;28;20456;-69
2023/08/26 08:54:31;;;;;;;9.57;3.70;;;21.30;99.90;;;;;;5086780;28;20452;-69
2023/08/26 08:56:57;;;;;;;12.10;4.47;;;21.30;99.90;;;;;;5087015;28;20413;-70
2023/08/26 08:59:25;;;;;;;13.90;3.80;;;21.30;99.90;;;;;;5085559;28;20466;-68
2023/08/26 09:01:55;;;;;;;11.50;3.37;;;21.30;99.90;;;;;;5087009;28;20461;-70
2023/08/26 09:04:22;;;;;;;8.13;3.20;;;21.20;99.90;;;;;;5086845;28;20428;-70
2023/08/26 09:06:48;;;;;;;9.37;3.87;;;21.20;99.90;;;;;;5087366;28;20909;-70
2023/08/26 09:09:18;;;;;;;13.07;3.67;;;21.30;99.90;;;;;;5085217;28;20427;-70
2023/08/26 09:11:44;;;;;;;5.70;4.67;;;21.40;99.90;;;;;;5086946;28;20457;-71
2023/08/26 09:14:10;;;;;;;9.30;4.70;;;21.50;99.90;;;;;;5086891;28;20501;-69
2023/08/26 09:16:40;;;;;;;15.83;4.17;;;21.60;99.90;;;;;;5086851;28;20837;-69
2023/08/26 09:19:07;;;;;;;5.07;3.93;;;21.70;99.90;;;;;;5086767;28;20199;-69
2023/08/26 09:21:33;;;;;;;8.17;4.60;;;21.70;99.90;;;;;;5086729;28;20952;-69
2023/08/26 09:24:00;;;;;;;6.30;3.77;;;21.80;99.90;;;;;;5086673;28;20441;-69
2023/08/26 09:26:26;;;;;;;10.77;4.50;;;21.90;99.90;;;;;;5086826;28;20742;-69
2023/08/26 09:28:53;;;;;;;6.20;4.00;;;21.80;99.90;;;;;;5087230;28;20478;-70
2023/08/26 09:31:19;;;;;;;11.53;3.70;;;21.90;99.90;;;;;;5086670;28;20906;-69
2023/08/26 09:33:50;;;;;;;9.93;5.10;;;22.00;99.90;;;;;;5086656;28;20448;-70
2023/08/26 09:36:16;;;;;;;8.53;3.80;;;22.10;99.90;;;;;;5086563;28;20413;-69
2023/08/26 09:38:52;;;;;;;6.43;4.50;;;22.20;99.90;;;;;;5086627;28;20552;-69
2023/08/26 09:41:21;;;;;;;5.03;3.77;;;22.20;99.90;;;;;;5089924;28;20861;-69
2023/08/26 09:43:47;;;;;;;6.00;3.83;;;22.30;99.90;;;;;;5090344;28;21059;-69
2023/08/26 09:46:18;;;;;;;8.50;3.40;;;22.40;99.90;;;;;;5090177;28;20413;-69
2023/08/26 09:48:44;;;;;;;7.07;4.17;;;22.50;99.90;;;;;;5088753;28;20191;-69
2023/08/26 09:51:10;;;;;;;8.53;3.67;;;22.60;99.90;;;;;;5090351;28;20421;-70
2023/08/26 09:53:36;;;;;;;10.00;4.37;;;22.70;99.90;;;;;;5088674;28;20478;-69
2023/08/26 09:56:03;;;;;;;7.40;4.30;;;22.90;99.90;;;;;;5090225;28;20192;-70
2023/08/26 09:58:29;;;;;;;8.87;4.20;;;23.10;99.90;;;;;;5090041;28;20568;-69
2023/08/26 10:00:54;;;;;;;9.37;4.10;;;23.30;99.90;;;;;;5090145;28;20518;-70
2023/08/26 10:03:24;;;;;;;8.37;4.10;;;23.40;99.90;;;;;;5090215;28;20176;-69
2023/08/26 10:05:55;;;;;;;8.63;3.90;;;23.40;99.90;;;;;;5088375;28;20437;-70
2023/08/26 10:08:29;;;;;;;7.83;4.37;;;23.40;99.90;;;;;;5088364;28;20467;-70
2023/08/26 10:10:56;;;;;;;9.67;4.80;;;23.30;99.90;;;;;;5090073;28;20426;-71
2023/08/26 10:13:25;;;;;;;7.70;4.10;;;23.20;99.90;;;;;;5089818;28;20890;-70
2023/08/26 10:15:52;;;;;;;10.10;4.20;;;23.20;99.90;;;;;;5089714;28;20551;-70
2023/08/26 10:18:41;;;;;;;6.83;4.23;;;23.10;99.90;;;;;;5088121;28;20463;-69
2023/08/26 10:21:08;;;;;;;6.30;4.20;;;23.20;99.90;;;;;;5089843;28;20527;-69
2023/08/26 10:23:34;;;;;;;7.50;3.77;;;23.30;99.90;;;;;;5089748;28;20425;-69
2023/08/26 10:26:00;;;;;;;5.70;3.63;;;23.40;99.90;;;;;;5071243;28;20819;-69
2023/08/26 10:28:27;;;;;;;9.73;3.87;;;23.50;99.90;;;;;;5089636;28;20423;-69
2023/08/26 10:30:54;;;;;;;8.57;4.17;;;23.50;99.90;;;;;;5089564;28;20932;-69
2023/08/26 10:33:20;;;;;;;7.23;4.23;;;23.50;99.90;;;;;;5089406;28;20433;-69
2023/08/26 10:36:11;;;;;;;7.60;3.90;;;23.60;99.90;;;;;;5087877;28;20466;-69
2023/08/26 10:38:39;;;;;;;15.97;5.47;;;23.70;99.90;;;;;;5089671;28;20487;-69
2023/08/26 10:41:11;;;;;;;7.30;4.17;;;23.70;99.90;;;;;;5089581;28;20791;-68
2023/08/26 10:43:37;;;;;;;14.50;4.23;;;23.60;99.90;;;;;;5089469;28;20465;-70
2023/08/26 10:46:03;;;;;;;7.43;3.83;;;23.70;99.90;;;;;;5087558;28;20419;-69
2023/08/26 10:48:29;;;;;;;5.83;4.10;;;23.90;99.90;;;;;;5087417;28;20801;-69
2023/08/26 10:51:02;;;;;;;10.03;4.43;;;24.00;99.90;;;;;;5088137;28;20186;-71
2023/08/26 10:53:28;;;;;;;10.47;4.00;;;24.00;99.90;;;;;;5088791;28;20189;-70
2023/08/26 10:56:13;;;;;;;8.10;4.53;;;24.10;99.90;;;;;;5088726;28;21027;-69
2023/08/26 10:58:44;;;;;;;4.80;3.50;;;24.00;99.90;;;;;;5088981;28;20210;-69
2023/08/26 11:01:10;;;;;;;15.57;4.23;;;23.90;99.90;;;;;;5089216;28;20407;-69
2023/08/26 11:03:37;;;;;;;9.23;4.27;;;23.70;99.90;;;;;;5089293;28;20419;-70
2023/08/26 11:06:10;;;;;;;7.67;3.53;;;23.70;99.90;;;;;;5089426;28;20426;-69
2023/08/26 11:08:38;;;;;;;8.03;3.70;;;23.90;99.90;;;;;;5089448;28;20416;-70
2023/08/26 11:11:09;;;;;;;9.63;4.57;;;24.10;99.90;;;;;;5089086;28;20796;-70
2023/08/26 11:13:35;;;;;;;10.57;4.30;;;24.20;99.90;;;;;;5088753;28;20417;-70
2023/08/26 11:16:01;;;;;;;6.63;3.77;;;24.10;99.90;;;;;;5088804;28;20424;-69
2023/08/26 11:18:26;;;;;;;9.67;3.73;;;24.10;99.90;;;;;;5088935;28;20198;-69
2023/08/26 11:20:52;;;;;;;12.40;3.97;;;24.30;99.90;;;;;;5088694;28;20654;-69
2023/08/26 11:23:22;;;;;;;6.20;4.17;;;24.10;99.90;;;;;;5088621;28;20669;-69
2023/08/26 11:25:48;;;;;;;4.90;3.60;;;23.80;99.90;;;;;;5088524;28;20197;-69
2023/08/26 11:28:14;;;;;;;7.67;4.63;;;23.60;99.90;;;;;;5088550;28;20431;-69
2023/08/26 11:30:45;;;;;;;11.57;5.03;;;23.40;99.90;;;;;;5086743;28;20284;-69
2023/08/26 11:33:16;;;;;;;5.63;4.23;;;23.40;99.90;;;;;;5088772;28;20459;-68
2023/08/26 11:35:45;;;;;;;8.57;4.20;;;23.30;99.90;;;;;;5088642;28;20446;-69
2023/08/26 11:38:12;;;;;;;12.70;4.23;;;23.30;99.90;;;;;;5086757;28;20459;-69
2023/08/26 11:40:38;;;;;;;7.47;4.50;;;23.30;99.90;;;;;;5088551;28;20542;-69
2023/08/26 11:43:12;;;;;;;8.30;4.83;;;23.30;99.90;;;;;;5088527;28;20438;-68
2023/08/26 11:45:39;;;;;;;12.03;4.00;;;23.30;99.90;;;;;;5088440;28;20442;-68
2023/08/26 11:48:09;;;;;;;8.83;4.40;;;23.30;99.90;;;;;;5088556;28;20534;-69
2023/08/26 11:50:35;;;;;;;9.67;4.20;;;23.10;99.90;;;;;;5086538;28;20958;-68
2023/08/26 11:53:03;;;;;;;10.50;4.70;;;23.00;99.90;;;;;;5088254;28;20425;-68
2023/08/26 11:55:29;;;;;;;6.57;4.37;;;22.80;99.90;;;;;;5088200;28;20467;-68
2023/08/26 11:57:55;;;;;;;7.90;5.23;;;22.70;99.90;;;;;;5088461;28;20453;-69
2023/08/26 12:00:22;;;;;;;9.93;5.00;;;22.70;99.90;;;;;;5087746;28;20503;-68
2023/08/26 12:02:49;;;;;;;6.03;4.63;;;22.50;99.90;;;;;;5087873;28;20419;-69
2023/08/26 12:05:16;;;;;;;10.53;4.67;;;22.40;99.90;;;;;;5087655;28;20834;-69
2023/08/26 12:07:46;;;;;;;8.47;5.10;;;22.30;99.90;;;;;;5087985;28;20487;-69
2023/08/26 12:10:13;;;;;;;10.03;4.87;;;22.20;99.90;;;;;;5086030;28;20411;-69
2023/08/26 12:12:40;;;;;;;12.63;4.83;;;22.20;99.90;;;;;;5085899;28;20446;-70
2023/08/26 12:15:10;;;;;;;7.53;4.27;;;22.20;99.90;;;;;;5087128;28;20434;-71
2023/08/26 12:17:49;;;;;;;14.33;4.90;;;22.10;99.90;;;;;;5087261;28;20932;-71
2023/08/26 12:20:28;;;;;;;18.80;5.73;;;22.00;99.90;;;;;;5087260;28;20431;-70
2023/08/26 12:22:57;;;;;;;19.10;4.90;;;21.90;99.90;;;;;;5085847;28;20986;-71
2023/08/26 12:25:25;;;;;;;9.53;4.40;;;21.80;99.90;;;;;;5085462;28;20854;-71
2023/08/26 12:27:51;;;;;;;10.67;5.27;;;21.70;99.90;;;;;;5085773;28;20424;-71
2023/08/26 12:30:17;;;;;;;7.90;4.80;;;21.60;99.90;;;;;;5087029;28;20770;-72
2023/08/26 12:32:42;;;;;;;6.93;5.47;;;21.50;99.90;;;;;;5085708;28;20440;-71
2023/08/26 12:35:08;;;;;;;10.47;4.60;;;21.40;99.90;;;;;;5085552;28;20637;-71
2023/08/26 12:37:35;;;;;;;9.10;5.10;;;21.40;99.90;;;;;;5086965;28;20262;-71
2023/08/26 12:40:04;;;;;;;10.43;5.40;;;21.30;99.90;;;;;;5086773;28;20295;-71